createdAt,value
2022-10-24T00:01:01.106Z,998.9
2022-10-24T00:02:17.404Z,998.9
2022-10-24T00:03:32.706Z,998.9
2022-10-24T00:04:49.019Z,998.8
2022-10-24T00:06:05.294Z,998.8
2022-10-24T00:07:21.600Z,998.8
2022-10-24T00:08:37.901Z,998.8
2022-10-24T00:09:53.215Z,998.8
2022-10-24T00:11:09.495Z,998.9
2022-10-24T00:12:25.792Z,998.9
2022-10-24T00:13:42.069Z,998.9
2022-10-24T00:14:58.384Z,998.9
2022-10-24T00:16:14.654Z,998.9
2022-10-24T00:17:30.949Z,998.9
2022-10-24T00:18:47.265Z,998.9
2022-10-24T00:20:03.535Z,998.9
2022-10-24T00:21:19.825Z,999
2022-10-24T00:22:36.117Z,999
2022-10-24T00:23:52.409Z,998.9
2022-10-24T00:25:08.704Z,998.9
2022-10-24T00:26:24.040Z,999
2022-10-24T00:27:40.314Z,999
2022-10-24T00:28:56.604Z,999
2022-10-24T00:30:12.906Z,998.9
2022-10-24T00:31:29.183Z,998.9
2022-10-24T00:32:45.497Z,998.9
2022-10-24T00:34:01.783Z,998.9
2022-10-24T00:35:18.076Z,998.9
2022-10-24T00:36:34.366Z,998.8
2022-10-24T00:37:50.654Z,998.7
2022-10-24T00:39:06.957Z,998.7
2022-10-24T00:40:23.232Z,998.7
2022-10-24T00:41:39.551Z,998.6
2022-10-24T00:42:54.848Z,998.5
2022-10-24T00:44:11.141Z,998.5
2022-10-24T00:45:27.414Z,998.5
2022-10-24T00:46:43.709Z,998.4
2022-10-24T00:48:00.012Z,998.5
2022-10-24T00:49:16.311Z,998.5
2022-10-24T00:50:32.583Z,998.5
2022-10-24T00:51:48.877Z,998.5
2022-10-24T00:53:05.182Z,998.5
2022-10-24T00:54:21.483Z,998.5
2022-10-24T00:55:37.761Z,998.5
2022-10-24T00:56:54.052Z,998.5
2022-10-24T00:58:10.351Z,998.5
2022-10-24T00:59:25.648Z,998.5
2022-10-24T01:00:41.947Z,998.5
2022-10-24T01:01:58.251Z,998.6
2022-10-24T01:03:14.526Z,998.6
2022-10-24T01:04:30.821Z,998.6
2022-10-24T01:05:47.142Z,998.6
2022-10-24T01:07:03.427Z,998.7
2022-10-24T01:08:19.710Z,998.7
2022-10-24T01:09:36.003Z,998.7
2022-10-24T01:10:52.304Z,998.7
2022-10-24T01:12:08.603Z,998.6
2022-10-24T01:13:24.871Z,998.6
2022-10-24T01:14:41.184Z,998.6
2022-10-24T01:15:56.474Z,998.6
2022-10-24T01:17:12.787Z,998.6
2022-10-24T01:18:29.076Z,998.5
2022-10-24T01:19:45.366Z,998.5
2022-10-24T01:21:01.640Z,998.5
2022-10-24T01:22:17.949Z,998.5
2022-10-24T01:23:34.233Z,998.5
2022-10-24T01:24:50.548Z,998.5
2022-10-24T01:26:06.813Z,998.5
2022-10-24T01:27:23.131Z,998.5
2022-10-24T01:28:39.421Z,998.4
2022-10-24T01:29:55.687Z,998.5
2022-10-24T01:31:11.999Z,998.5
2022-10-24T01:32:27.290Z,998.4
2022-10-24T01:33:43.591Z,998.4
2022-10-24T01:34:59.897Z,998.4
2022-10-24T01:36:16.187Z,998.4
2022-10-24T01:37:32.487Z,998.3
2022-10-24T01:38:48.768Z,998.4
2022-10-24T01:40:05.047Z,998.3
2022-10-24T01:41:21.333Z,998.3
2022-10-24T01:42:37.626Z,998.4
2022-10-24T01:43:53.951Z,998.3
2022-10-24T01:45:10.237Z,998.3
2022-10-24T01:46:26.508Z,998.2
2022-10-24T01:47:42.823Z,998.3
2022-10-24T01:48:58.116Z,998.2
2022-10-24T01:50:14.423Z,998.2
2022-10-24T01:51:30.704Z,998.2
2022-10-24T01:52:47.007Z,998.2
2022-10-24T01:54:03.293Z,998.1
2022-10-24T01:55:19.588Z,998.1
2022-10-24T01:56:35.860Z,998.1
2022-10-24T01:57:52.159Z,998.1
2022-10-24T01:59:08.475Z,998.1
2022-10-24T02:00:24.750Z,998.1
2022-10-24T02:01:41.037Z,998.1
2022-10-24T02:02:57.347Z,998.1
2022-10-24T02:04:13.620Z,998.1
2022-10-24T02:05:28.938Z,998.1
2022-10-24T02:06:45.220Z,998.1
2022-10-24T02:08:01.513Z,998.1
2022-10-24T02:09:17.838Z,998.1
2022-10-24T02:10:34.096Z,998.1
2022-10-24T02:11:50.405Z,998.1
2022-10-24T02:13:06.699Z,998.1
2022-10-24T02:14:22.977Z,998.1
2022-10-24T02:15:39.277Z,998.1
2022-10-24T02:16:55.570Z,998.1
2022-10-24T02:18:11.865Z,998.1
2022-10-24T02:19:28.158Z,998.1
2022-10-24T02:20:44.444Z,998.1
2022-10-24T02:21:59.774Z,998.1
2022-10-24T02:23:16.039Z,998.1
2022-10-24T02:24:32.342Z,998.1
2022-10-24T02:25:48.653Z,998.1
2022-10-24T02:27:04.945Z,998.1
2022-10-24T02:28:21.230Z,998.2
2022-10-24T02:29:37.522Z,998.1
2022-10-24T02:30:53.806Z,998
2022-10-24T02:32:10.106Z,998.1
2022-10-24T02:33:26.386Z,998.1
2022-10-24T02:34:42.698Z,998.1
2022-10-24T02:35:58.989Z,998.1
2022-10-24T02:37:15.275Z,998.1
2022-10-24T02:38:30.571Z,998.1
2022-10-24T02:39:46.863Z,998.2
2022-10-24T02:41:03.000Z,998.2
2022-10-24T02:42:19.452Z,998.2
2022-10-24T02:43:35.766Z,998.2
2022-10-24T02:44:52.046Z,998.2
2022-10-24T02:46:08.323Z,998.2
2022-10-24T02:47:24.620Z,998.2
2022-10-24T02:48:40.917Z,998.2
2022-10-24T02:49:57.198Z,998.2
2022-10-24T02:51:13.491Z,998.3
2022-10-24T02:52:29.782Z,998.3
2022-10-24T02:53:46.075Z,998.3
2022-10-24T02:55:01.416Z,998.2
2022-10-24T02:56:17.705Z,998.3
2022-10-24T02:57:33.993Z,998.2
2022-10-24T02:58:50.263Z,998.2
2022-10-24T03:00:06.557Z,998.2
2022-10-24T03:01:22.848Z,998.2
2022-10-24T03:02:39.178Z,998.2
2022-10-24T03:03:55.440Z,998.2
2022-10-24T03:05:11.733Z,998.2
2022-10-24T03:06:28.024Z,998.2
2022-10-24T03:07:44.339Z,998.2
2022-10-24T03:09:00.637Z,998.2
2022-10-24T03:10:16.917Z,998.2
2022-10-24T03:11:32.212Z,998.3
2022-10-24T03:12:48.522Z,998.3
2022-10-24T03:14:04.805Z,998.3
2022-10-24T03:15:21.097Z,998.3
2022-10-24T03:16:37.390Z,998.3
2022-10-24T03:17:53.685Z,998.3
2022-10-24T03:19:09.965Z,998.3
2022-10-24T03:20:26.275Z,998.3
2022-10-24T03:21:42.552Z,998.2
2022-10-24T03:22:58.863Z,998.3
2022-10-24T03:24:15.137Z,998.3
2022-10-24T03:25:31.450Z,998.2
2022-10-24T03:26:47.731Z,998.3
2022-10-24T03:28:03.047Z,998.3
2022-10-24T03:29:19.343Z,998.3
2022-10-24T03:30:35.623Z,998.4
2022-10-24T03:31:51.924Z,998.3
2022-10-24T03:33:08.219Z,998.4
2022-10-24T03:34:24.516Z,998.3
2022-10-24T03:35:40.786Z,998.3
2022-10-24T03:36:57.098Z,998.3
2022-10-24T03:38:13.373Z,998.2
2022-10-24T03:39:29.687Z,998.3
2022-10-24T03:40:45.965Z,998.3
2022-10-24T03:42:02.271Z,998.4
2022-10-24T03:43:18.545Z,998.4
2022-10-24T03:44:33.866Z,998.5
2022-10-24T03:45:50.141Z,998.5
2022-10-24T03:47:06.464Z,998.5
2022-10-24T03:48:22.739Z,998.5
2022-10-24T03:49:39.034Z,998.5
2022-10-24T03:50:55.331Z,998.5
2022-10-24T03:52:11.623Z,998.5
2022-10-24T03:53:27.896Z,998.5
2022-10-24T03:54:44.214Z,998.5
2022-10-24T03:56:00.496Z,998.5
2022-10-24T03:57:16.777Z,998.5
2022-10-24T03:58:33.081Z,998.5
2022-10-24T03:59:49.391Z,998.5
2022-10-24T04:01:04.684Z,998.5
2022-10-24T04:02:20.976Z,998.6
2022-10-24T04:03:37.262Z,998.6
2022-10-24T04:04:53.553Z,998.6
2022-10-24T04:06:09.852Z,998.6
2022-10-24T04:07:26.135Z,998.6
2022-10-24T04:08:42.449Z,998.6
2022-10-24T04:09:58.738Z,998.5
2022-10-24T04:11:15.007Z,998.5
2022-10-24T04:12:31.318Z,998.4
2022-10-24T04:13:47.618Z,998.5
2022-10-24T04:15:03.897Z,998.5
2022-10-24T04:16:20.183Z,998.4
2022-10-24T04:17:35.491Z,998.5
2022-10-24T04:18:51.795Z,998.4
2022-10-24T04:20:08.079Z,998.4
2022-10-24T04:21:24.368Z,998.4
2022-10-24T04:22:40.655Z,998.4
2022-10-24T04:23:56.968Z,998.4
2022-10-24T04:25:12.274Z,998.4
2022-10-24T04:26:28.567Z,998.4
2022-10-24T04:27:44.873Z,998.4
2022-10-24T04:29:01.152Z,998.5
2022-10-24T04:30:17.441Z,998.4
2022-10-24T04:31:33.725Z,998.5
2022-10-24T04:32:50.036Z,998.5
2022-10-24T04:34:06.313Z,998.5
2022-10-24T04:35:22.608Z,998.5
2022-10-24T04:36:38.896Z,998.5
2022-10-24T04:37:55.202Z,998.5
2022-10-24T04:39:11.484Z,998.4
2022-10-24T04:40:27.786Z,998.5
2022-10-24T04:41:43.079Z,998.5
2022-10-24T04:42:59.394Z,998.5
2022-10-24T04:44:15.664Z,998.5
2022-10-24T04:45:31.963Z,998.5
2022-10-24T04:46:48.264Z,998.5
2022-10-24T04:48:04.548Z,998.5
2022-10-24T04:49:20.864Z,998.5
2022-10-24T04:50:37.139Z,998.5
2022-10-24T04:51:53.422Z,998.5
2022-10-24T04:53:09.734Z,998.5
2022-10-24T04:54:26.020Z,998.5
2022-10-24T04:55:42.303Z,998.5
2022-10-24T04:56:58.602Z,998.5
2022-10-24T04:58:13.917Z,998.5
2022-10-24T04:59:30.214Z,998.5
2022-10-24T05:00:46.510Z,998.5
2022-10-24T05:02:02.785Z,998.6
2022-10-24T05:03:19.080Z,998.6
2022-10-24T05:04:35.367Z,998.6
2022-10-24T05:05:51.665Z,998.5
2022-10-24T05:07:07.951Z,998.5
2022-10-24T05:08:24.243Z,998.5
2022-10-24T05:09:40.536Z,998.5
2022-10-24T05:10:56.846Z,998.5
2022-10-24T05:12:13.115Z,998.5
2022-10-24T05:13:29.421Z,998.5
2022-10-24T05:14:44.728Z,998.5
2022-10-24T05:16:01.011Z,998.6
2022-10-24T05:17:17.313Z,998.6
2022-10-24T05:18:33.611Z,998.6
2022-10-24T05:19:49.900Z,998.6
2022-10-24T05:21:06.173Z,998.7
2022-10-24T05:22:22.483Z,998.7
2022-10-24T05:23:38.775Z,998.7
2022-10-24T05:24:55.074Z,998.7
2022-10-24T05:26:11.312Z,998.6
2022-10-24T05:27:27.530Z,998.6
2022-10-24T05:28:43.773Z,998.6
2022-10-24T05:30:00.020Z,998.5
2022-10-24T05:31:15.330Z,998.5
2022-10-24T05:32:31.567Z,998.5
2022-10-24T05:33:47.812Z,998.4
2022-10-24T05:35:04.068Z,998.4
2022-10-24T05:36:20.360Z,998.3
2022-10-24T05:37:36.606Z,998.2
2022-10-24T05:38:52.837Z,998.2
2022-10-24T05:40:09.087Z,998.2
2022-10-24T05:41:25.312Z,998.2
2022-10-24T05:42:41.549Z,998.1
2022-10-24T05:43:57.802Z,998.1
2022-10-24T05:45:14.023Z,998
2022-10-24T05:46:30.288Z,998
2022-10-24T05:47:45.525Z,998.1
2022-10-24T05:49:01.755Z,998.1
2022-10-24T05:50:17.996Z,998.1
2022-10-24T05:51:34.243Z,998.2
2022-10-24T05:52:50.487Z,998.2
2022-10-24T05:54:06.711Z,998.2
2022-10-24T05:55:22.980Z,998.2
2022-10-24T05:56:39.208Z,998.2
2022-10-24T05:57:55.432Z,998.2
2022-10-24T05:59:11.664Z,998.2
2022-10-24T06:00:27.905Z,998.2
2022-10-24T06:01:44.150Z,998.2
2022-10-24T06:03:00.393Z,998.2
2022-10-24T06:04:15.655Z,998.2
2022-10-24T06:05:31.879Z,998.2
2022-10-24T06:06:48.115Z,998.3
2022-10-24T06:08:04.371Z,998.2
2022-10-24T06:09:20.603Z,998.2
2022-10-24T06:10:36.829Z,998.2
2022-10-24T06:11:53.095Z,998.3
2022-10-24T06:13:09.307Z,998.2
2022-10-24T06:14:25.559Z,998.2
2022-10-24T06:15:41.783Z,998.3
2022-10-24T06:16:58.025Z,998.3
2022-10-24T06:18:14.284Z,998.3
2022-10-24T06:19:30.503Z,998.3
2022-10-24T06:20:45.752Z,998.3
2022-10-24T06:22:01.998Z,998.4
2022-10-24T06:23:18.245Z,998.3
2022-10-24T06:24:34.482Z,998.3
2022-10-24T06:25:50.720Z,998.4
2022-10-24T06:27:06.940Z,998.3
2022-10-24T06:28:23.187Z,998.3
2022-10-24T06:29:39.423Z,998.3
2022-10-24T06:30:55.664Z,998.4
2022-10-24T06:32:11.917Z,998.4
2022-10-24T06:33:28.151Z,998.4
2022-10-24T06:34:44.393Z,998.4
2022-10-24T06:36:00.609Z,998.4
2022-10-24T06:37:15.869Z,998.4
2022-10-24T06:38:32.110Z,998.5
2022-10-24T06:39:48.364Z,998.4
2022-10-24T06:41:04.595Z,998.5
2022-10-24T06:42:20.832Z,998.5
2022-10-24T06:43:37.075Z,998.6
2022-10-24T06:44:53.314Z,998.6
2022-10-24T06:46:09.540Z,998.6
2022-10-24T06:47:25.791Z,998.6
2022-10-24T06:48:42.028Z,998.6
2022-10-24T06:49:58.283Z,998.6
2022-10-24T06:51:14.494Z,998.5
2022-10-24T06:52:30.758Z,998.6
2022-10-24T06:53:45.990Z,998.5
2022-10-24T06:55:02.237Z,998.5
2022-10-24T06:56:18.458Z,998.5
2022-10-24T06:57:34.698Z,998.5
2022-10-24T06:58:50.933Z,998.5
2022-10-24T07:00:07.173Z,998.5
2022-10-24T07:01:23.426Z,998.5
2022-10-24T07:02:39.651Z,998.5
2022-10-24T07:03:55.908Z,998.6
2022-10-24T07:05:12.144Z,998.6
2022-10-24T07:06:28.401Z,998.6
2022-10-24T07:07:44.619Z,998.7
2022-10-24T07:09:00.869Z,998.7
2022-10-24T07:10:16.114Z,998.7
2022-10-24T07:11:32.360Z,998.8
2022-10-24T07:12:48.574Z,998.8
2022-10-24T07:14:04.830Z,998.8
2022-10-24T07:15:21.061Z,998.8
2022-10-24T07:16:37.317Z,998.9
2022-10-24T07:17:53.556Z,998.9
2022-10-24T07:19:09.798Z,999
2022-10-24T07:20:26.038Z,999
2022-10-24T07:21:42.251Z,999
2022-10-24T07:22:58.504Z,999
2022-10-24T07:24:14.744Z,999.1
2022-10-24T07:25:30.973Z,999.1
2022-10-24T07:26:46.210Z,999.1
2022-10-24T07:28:02.468Z,999.2
2022-10-24T07:29:18.694Z,999.3
2022-10-24T07:30:34.936Z,999.3
2022-10-24T07:31:51.173Z,999.2
2022-10-24T07:33:07.423Z,999.2
2022-10-24T07:34:23.644Z,999.2
2022-10-24T07:35:39.900Z,999.2
2022-10-24T07:36:56.129Z,999.2
2022-10-24T07:38:12.375Z,999.1
2022-10-24T07:39:28.601Z,999.1
2022-10-24T07:40:44.853Z,999.1
2022-10-24T07:42:01.076Z,999
2022-10-24T07:43:16.331Z,999
2022-10-24T07:44:32.573Z,999.1
2022-10-24T07:45:48.822Z,999
2022-10-24T07:47:05.059Z,999
2022-10-24T07:48:21.309Z,999
2022-10-24T07:49:37.542Z,999
2022-10-24T07:50:53.776Z,999
2022-10-24T07:52:09.997Z,998.9
2022-10-24T07:53:26.253Z,999
2022-10-24T07:54:42.479Z,998.9
2022-10-24T07:55:58.739Z,998.9
2022-10-24T07:57:14.971Z,998.9
2022-10-24T07:58:31.211Z,998.9
2022-10-24T07:59:46.458Z,999
2022-10-24T08:01:02.718Z,999
2022-10-24T08:02:18.942Z,999
2022-10-24T08:03:35.176Z,999.1
2022-10-24T08:04:51.398Z,999
2022-10-24T08:06:07.660Z,999.1
2022-10-24T08:07:23.892Z,999.1
2022-10-24T08:08:40.120Z,999.1
2022-10-24T08:09:56.375Z,999
2022-10-24T08:11:12.612Z,999
2022-10-24T08:12:28.830Z,999
2022-10-24T08:13:45.076Z,999.1
2022-10-24T08:15:01.330Z,999
2022-10-24T08:16:16.595Z,999.1
2022-10-24T08:17:32.799Z,999.1
2022-10-24T08:18:49.060Z,999
2022-10-24T08:20:05.291Z,999
2022-10-24T08:21:21.533Z,999
2022-10-24T08:22:37.764Z,999.2
2022-10-24T08:23:54.019Z,999.1
2022-10-24T08:25:10.248Z,999
2022-10-24T08:26:26.504Z,999
2022-10-24T08:27:42.732Z,999
2022-10-24T08:28:58.978Z,999.1
2022-10-24T08:30:15.201Z,998.9
2022-10-24T08:31:31.438Z,998.9
2022-10-24T08:32:46.684Z,998.9
2022-10-24T08:34:02.947Z,999
2022-10-24T08:35:19.183Z,999
2022-10-24T08:36:35.416Z,999.1
2022-10-24T08:37:51.646Z,999
2022-10-24T08:39:07.896Z,999
2022-10-24T08:40:23.152Z,999
2022-10-24T08:41:39.384Z,999.1
2022-10-24T08:42:55.634Z,999.1
2022-10-24T08:44:11.875Z,999.1
2022-10-24T08:45:28.093Z,999.1
2022-10-24T08:46:44.347Z,999
2022-10-24T08:48:00.570Z,999
2022-10-24T08:49:16.821Z,999
2022-10-24T08:50:33.061Z,999.1
2022-10-24T08:51:49.294Z,999
2022-10-24T08:53:05.533Z,998.9
2022-10-24T08:54:21.773Z,998.9
2022-10-24T08:55:37.993Z,998.9
2022-10-24T08:56:53.265Z,998.9
2022-10-24T08:58:09.502Z,998.9
2022-10-24T08:59:25.744Z,998.9
2022-10-24T09:00:41.962Z,998.9
2022-10-24T09:01:58.223Z,998.9
2022-10-24T09:03:14.464Z,998.9
2022-10-24T09:04:30.688Z,998.9
2022-10-24T09:05:46.948Z,998.8
2022-10-24T09:07:03.178Z,998.8
2022-10-24T09:08:19.410Z,998.8
2022-10-24T09:09:35.661Z,998.9
2022-10-24T09:10:51.896Z,998.9
2022-10-24T09:12:08.112Z,998.9
2022-10-24T09:13:23.372Z,998.9
2022-10-24T09:14:39.626Z,998.9
2022-10-24T09:15:55.876Z,998.9
2022-10-24T09:17:12.102Z,998.9
2022-10-24T09:18:28.346Z,998.9
2022-10-24T09:19:44.579Z,998.8
2022-10-24T09:21:00.825Z,998.8
2022-10-24T09:22:17.050Z,998.7
2022-10-24T09:23:33.312Z,998.7
2022-10-24T09:24:49.515Z,998.7
2022-10-24T09:26:05.767Z,998.7
2022-10-24T09:27:22.024Z,998.7
2022-10-24T09:28:38.255Z,998.6
2022-10-24T09:29:53.510Z,998.7
2022-10-24T09:31:09.753Z,998.7
2022-10-24T09:32:25.981Z,998.7
2022-10-24T09:33:42.212Z,998.7
2022-10-24T09:34:58.473Z,998.7
2022-10-24T09:36:14.681Z,998.6
2022-10-24T09:37:30.932Z,998.7
2022-10-24T09:38:47.164Z,998.8
2022-10-24T09:40:03.412Z,998.9
2022-10-24T09:41:19.649Z,998.9
2022-10-24T09:42:35.895Z,998.8
2022-10-24T09:43:52.115Z,998.8
2022-10-24T09:45:08.375Z,998.8
2022-10-24T09:46:23.627Z,998.8
2022-10-24T09:47:39.872Z,998.8
2022-10-24T09:48:56.084Z,998.8
2022-10-24T09:50:12.350Z,998.8
2022-10-24T09:51:28.560Z,998.9
2022-10-24T09:52:44.818Z,998.9
2022-10-24T09:54:01.057Z,998.8
2022-10-24T09:55:17.279Z,998.8
2022-10-24T09:56:33.526Z,998.9
2022-10-24T09:57:49.758Z,998.8
2022-10-24T09:59:05.994Z,998.9
2022-10-24T10:00:22.245Z,998.9
2022-10-24T10:01:38.472Z,998.8
2022-10-24T10:02:53.745Z,998.9
2022-10-24T10:04:09.964Z,998.9
2022-10-24T10:05:26.223Z,998.9
2022-10-24T10:06:42.461Z,998.9
2022-10-24T10:07:58.707Z,998.9
2022-10-24T10:09:14.000Z,998.9
2022-10-24T10:10:31.177Z,999
2022-10-24T10:11:47.397Z,999
2022-10-24T10:13:03.664Z,999
2022-10-24T10:14:19.897Z,999
2022-10-24T10:15:36.144Z,998.9
2022-10-24T10:16:52.381Z,999
2022-10-24T10:18:08.620Z,999
2022-10-24T10:19:23.862Z,999
2022-10-24T10:20:40.090Z,999
2022-10-24T10:21:56.327Z,999
2022-10-24T10:23:12.584Z,999
2022-10-24T10:24:28.811Z,999.1
2022-10-24T10:25:45.056Z,999.2
2022-10-24T10:27:01.292Z,999.1
2022-10-24T10:28:17.544Z,999.1
2022-10-24T10:29:33.800Z,999.2
2022-10-24T10:30:50.021Z,999.2
2022-10-24T10:32:06.261Z,999.1
2022-10-24T10:33:22.481Z,999.1
2022-10-24T10:34:38.731Z,999.1
2022-10-24T10:35:53.994Z,999.1
2022-10-24T10:37:10.238Z,999
2022-10-24T10:38:26.478Z,999.1
2022-10-24T10:39:42.695Z,999.1
2022-10-24T10:40:58.933Z,999.1
2022-10-24T10:42:15.174Z,999.1
2022-10-24T10:43:31.412Z,999.1
2022-10-24T10:44:47.687Z,999.2
2022-10-24T10:46:03.910Z,999.1
2022-10-24T10:47:20.141Z,999.1
2022-10-24T10:48:36.393Z,999.1
2022-10-24T10:49:52.614Z,999.1
2022-10-24T10:51:08.847Z,999.1
2022-10-24T10:52:24.123Z,999.1
2022-10-24T10:53:40.359Z,999.2
2022-10-24T10:54:56.586Z,999.1
2022-10-24T10:56:12.820Z,999.1
2022-10-24T10:57:29.072Z,999
2022-10-24T10:58:45.311Z,999.1
2022-10-24T11:00:01.538Z,999
2022-10-24T11:01:17.777Z,999
2022-10-24T11:02:34.027Z,999
2022-10-24T11:03:50.267Z,999
2022-10-24T11:05:06.505Z,999.1
2022-10-24T11:06:22.747Z,999
2022-10-24T11:07:38.972Z,999
2022-10-24T11:08:54.231Z,999
2022-10-24T11:10:10.464Z,998.9
2022-10-24T11:11:26.718Z,998.8
2022-10-24T11:12:42.956Z,998.9
2022-10-24T11:13:59.189Z,998.9
2022-10-24T11:15:15.420Z,998.8
2022-10-24T11:16:31.660Z,998.8
2022-10-24T11:17:47.911Z,998.9
2022-10-24T11:19:04.141Z,998.9
2022-10-24T11:20:20.384Z,998.9
2022-10-24T11:21:36.616Z,998.9
2022-10-24T11:22:52.864Z,998.9
2022-10-24T11:24:09.096Z,998.8
2022-10-24T11:25:24.353Z,998.9
2022-10-24T11:26:40.606Z,998.8
2022-10-24T11:27:56.829Z,998.8
2022-10-24T11:29:13.072Z,998.8
2022-10-24T11:30:29.314Z,998.8
2022-10-24T11:31:45.555Z,998.8
2022-10-24T11:33:01.800Z,998.8
2022-10-24T11:34:18.023Z,998.8
2022-10-24T11:35:34.262Z,998.8
2022-10-24T11:36:50.514Z,998.8
2022-10-24T11:38:06.747Z,998.7
2022-10-24T11:39:22.982Z,998.7
2022-10-24T11:40:39.229Z,998.7
2022-10-24T11:41:54.478Z,998.6
2022-10-24T11:43:10.728Z,998.6
2022-10-24T11:44:26.957Z,998.6
2022-10-24T11:45:43.197Z,998.5
2022-10-24T11:46:59.439Z,998.5
2022-10-24T11:48:15.682Z,998.5
2022-10-24T11:49:31.913Z,998.5
2022-10-24T11:50:48.145Z,998.5
2022-10-24T11:52:04.384Z,998.5
2022-10-24T11:53:20.642Z,998.5
2022-10-24T11:54:36.878Z,998.4
2022-10-24T11:55:53.112Z,998.5
2022-10-24T11:57:09.342Z,998.4
2022-10-24T11:58:24.611Z,998.4
2022-10-24T11:59:40.839Z,998.4
2022-10-24T12:00:57.078Z,998.5
2022-10-24T12:02:13.313Z,998.5
2022-10-24T12:03:29.569Z,998.5
2022-10-24T12:04:45.789Z,998.5
2022-10-24T12:06:02.041Z,998.5
2022-10-24T12:07:18.271Z,998.5
2022-10-24T12:08:34.524Z,998.5
2022-10-24T12:09:50.746Z,998.5
2022-10-24T12:11:06.986Z,998.5
2022-10-24T12:12:23.238Z,998.4
2022-10-24T12:13:39.480Z,998.4
2022-10-24T12:14:54.715Z,998.4
2022-10-24T12:16:10.962Z,998.4
2022-10-24T12:17:27.192Z,998.5
2022-10-24T12:18:43.440Z,998.5
2022-10-24T12:19:59.676Z,998.4
2022-10-24T12:21:15.918Z,998.5
2022-10-24T12:22:32.160Z,998.4
2022-10-24T12:23:48.403Z,998.4
2022-10-24T12:25:04.630Z,998.4
2022-10-24T12:26:20.872Z,998.4
2022-10-24T12:27:37.102Z,998.3
2022-10-24T12:28:53.341Z,998.4
2022-10-24T12:30:09.585Z,998.3
2022-10-24T12:31:24.847Z,998.4
2022-10-24T12:32:41.082Z,998.2
2022-10-24T12:33:57.327Z,998.4
2022-10-24T12:35:13.560Z,998.3
2022-10-24T12:36:29.792Z,998.2
2022-10-24T12:37:46.031Z,998.3
2022-10-24T12:39:02.287Z,998.3
2022-10-24T12:40:18.507Z,998.3
2022-10-24T12:41:34.755Z,998.3
2022-10-24T12:42:50.990Z,998.3
2022-10-24T12:44:07.227Z,998.2
2022-10-24T12:45:23.469Z,998.3
2022-10-24T12:46:39.707Z,998.3
2022-10-24T12:47:55.954Z,998.2
2022-10-24T12:49:11.202Z,998.3
2022-10-24T12:50:27.445Z,998.2
2022-10-24T12:51:43.678Z,998.2
2022-10-24T12:52:59.914Z,998.2
2022-10-24T12:54:16.000Z,998.3
2022-10-24T12:55:31.428Z,998.3
2022-10-24T12:56:47.671Z,998.3
2022-10-24T12:58:03.899Z,998.3
2022-10-24T12:59:20.145Z,998.4
2022-10-24T13:00:36.372Z,998.3
2022-10-24T13:01:52.609Z,998.4
2022-10-24T13:03:08.853Z,998.3
2022-10-24T13:04:25.088Z,998.3
2022-10-24T13:05:41.331Z,998.3
2022-10-24T13:06:57.573Z,998.3
2022-10-24T13:08:13.816Z,998.3
2022-10-24T13:09:30.049Z,998.3
2022-10-24T13:10:46.291Z,998.3
2022-10-24T13:12:01.543Z,998.4
2022-10-24T13:13:17.784Z,998.4
2022-10-24T13:14:34.030Z,998.4
2022-10-24T13:15:50.257Z,998.4
2022-10-24T13:17:06.506Z,998.4
2022-10-24T13:18:22.735Z,998.4
2022-10-24T13:19:38.987Z,998.4
2022-10-24T13:20:55.217Z,998.4
2022-10-24T13:22:11.462Z,998.3
2022-10-24T13:23:27.700Z,998.4
2022-10-24T13:24:43.930Z,998.4
2022-10-24T13:26:00.176Z,998.4
2022-10-24T13:27:16.418Z,998.4
2022-10-24T13:28:31.675Z,998.5
2022-10-24T13:29:47.907Z,998.5
2022-10-24T13:31:04.141Z,998.6
2022-10-24T13:32:20.390Z,998.5
2022-10-24T13:33:36.633Z,998.5
2022-10-24T13:34:52.865Z,998.4
2022-10-24T13:36:09.107Z,998.4
2022-10-24T13:37:25.345Z,998.4
2022-10-24T13:38:41.580Z,998.5
2022-10-24T13:39:57.824Z,998.5
2022-10-24T13:41:14.064Z,998.5
2022-10-24T13:42:30.293Z,998.5
2022-10-24T13:43:46.533Z,998.6
2022-10-24T13:45:01.797Z,998.6
2022-10-24T13:46:18.043Z,998.5
2022-10-24T13:47:34.281Z,998.6
2022-10-24T13:48:50.519Z,998.6
2022-10-24T13:50:06.750Z,998.6
2022-10-24T13:51:22.985Z,998.6
2022-10-24T13:52:39.238Z,998.6
2022-10-24T13:53:55.460Z,998.6
2022-10-24T13:55:11.701Z,998.6
2022-10-24T13:56:27.939Z,998.6
2022-10-24T13:57:44.181Z,998.6
2022-10-24T13:59:00.428Z,998.7
2022-10-24T14:00:16.654Z,998.7
2022-10-24T14:01:31.919Z,998.7
2022-10-24T14:02:48.153Z,998.6
2022-10-24T14:04:04.396Z,998.6
2022-10-24T14:05:20.641Z,998.6
2022-10-24T14:06:36.879Z,998.6
2022-10-24T14:07:53.110Z,998.6
2022-10-24T14:09:09.350Z,998.6
2022-10-24T14:10:25.584Z,998.6
2022-10-24T14:11:41.820Z,998.6
2022-10-24T14:12:58.066Z,998.6
2022-10-24T14:14:14.302Z,998.6
2022-10-24T14:15:30.538Z,998.6
2022-10-24T14:16:46.789Z,998.6
2022-10-24T14:18:02.041Z,998.6
2022-10-24T14:19:18.272Z,998.6
2022-10-24T14:20:34.511Z,998.6
2022-10-24T14:21:50.754Z,998.6
2022-10-24T14:23:06.994Z,998.6
2022-10-24T14:24:23.231Z,998.5
2022-10-24T14:25:39.472Z,998.5
2022-10-24T14:26:55.710Z,998.6
2022-10-24T14:28:11.942Z,998.6
2022-10-24T14:29:28.193Z,998.7
2022-10-24T14:30:44.435Z,998.6
2022-10-24T14:32:00.676Z,998.6
2022-10-24T14:33:16.899Z,998.6
2022-10-24T14:34:32.152Z,998.6
2022-10-24T14:35:48.395Z,998.7
2022-10-24T14:37:04.638Z,998.6
2022-10-24T14:38:20.875Z,998.7
2022-10-24T14:39:37.112Z,998.6
2022-10-24T14:40:53.347Z,998.7
2022-10-24T14:42:09.593Z,998.7
2022-10-24T14:43:25.824Z,998.7
2022-10-24T14:44:42.068Z,998.7
2022-10-24T14:45:58.305Z,998.7
2022-10-24T14:47:14.549Z,998.8
2022-10-24T14:48:30.780Z,998.8
2022-10-24T14:49:47.019Z,998.7
2022-10-24T14:51:02.274Z,998.7
2022-10-24T14:52:18.520Z,998.7
2022-10-24T14:53:34.762Z,998.6
2022-10-24T14:54:50.989Z,998.8
2022-10-24T14:56:07.231Z,998.8
2022-10-24T14:57:23.463Z,998.8
2022-10-24T14:58:39.721Z,998.7
2022-10-24T14:59:55.940Z,998.7
2022-10-24T15:01:12.190Z,998.8
2022-10-24T15:02:28.423Z,998.8
2022-10-24T15:03:44.660Z,998.7
2022-10-24T15:05:00.911Z,998.7
2022-10-24T15:06:17.144Z,998.7
2022-10-24T15:07:32.406Z,998.7
2022-10-24T15:08:48.636Z,998.7
2022-10-24T15:10:04.877Z,998.7
2022-10-24T15:11:21.122Z,998.7
2022-10-24T15:12:37.354Z,998.7
2022-10-24T15:13:53.587Z,998.7
2022-10-24T15:15:09.829Z,998.6
2022-10-24T15:16:26.065Z,998.7
2022-10-24T15:17:42.308Z,998.7
2022-10-24T15:18:58.548Z,998.7
2022-10-24T15:20:14.783Z,998.7
2022-10-24T15:21:31.019Z,998.7
2022-10-24T15:22:47.261Z,998.8
2022-10-24T15:24:02.520Z,998.8
2022-10-24T15:25:18.760Z,998.7
2022-10-24T15:26:34.991Z,998.7
2022-10-24T15:27:51.232Z,998.8
2022-10-24T15:29:07.468Z,998.7
2022-10-24T15:30:23.719Z,998.7
2022-10-24T15:31:39.944Z,998.7
2022-10-24T15:32:56.200Z,998.7
2022-10-24T15:34:12.420Z,998.8
2022-10-24T15:35:28.664Z,998.8
2022-10-24T15:36:44.905Z,998.8
2022-10-24T15:38:01.142Z,998.8
2022-10-24T15:39:17.376Z,998.7
2022-10-24T15:40:32.642Z,998.8
2022-10-24T15:41:48.887Z,998.8
2022-10-24T15:43:05.116Z,998.8
2022-10-24T15:44:21.360Z,998.7
2022-10-24T15:45:37.594Z,998.8
2022-10-24T15:46:53.844Z,998.8
2022-10-24T15:48:10.085Z,998.9
2022-10-24T15:49:26.314Z,998.8
2022-10-24T15:50:42.563Z,998.8
2022-10-24T15:51:58.796Z,998.8
2022-10-24T15:53:15.034Z,998.8
2022-10-24T15:54:31.276Z,998.8
2022-10-24T15:55:47.514Z,998.8
2022-10-24T15:57:02.756Z,998.9
2022-10-24T15:58:19.001Z,998.8
2022-10-24T15:59:35.230Z,998.8
2022-10-24T16:00:51.473Z,998.9
2022-10-24T16:02:07.713Z,998.9
2022-10-24T16:03:23.945Z,998.8
2022-10-24T16:04:40.185Z,998.8
2022-10-24T16:05:56.440Z,998.8
2022-10-24T16:07:12.676Z,998.8
2022-10-24T16:08:28.903Z,998.8
2022-10-24T16:09:45.143Z,998.8
2022-10-24T16:11:01.396Z,998.9
2022-10-24T16:12:17.626Z,998.8
2022-10-24T16:13:32.883Z,998.9
2022-10-24T16:14:49.120Z,998.9
2022-10-24T16:16:05.351Z,998.9
2022-10-24T16:17:21.606Z,998.8
2022-10-24T16:18:37.000Z,998.9
2022-10-24T16:19:54.071Z,998.9
2022-10-24T16:21:10.307Z,998.9
2022-10-24T16:22:26.563Z,998.8
2022-10-24T16:23:42.792Z,998.8
2022-10-24T16:24:59.034Z,998.8
2022-10-24T16:26:15.267Z,998.9